Time;durP1;ratioP1;P1;durP2;ratioP2;P2;SDS_P1;SDS_P2;PMS_P1;PMS_P2;Temp;Humidity;BMP_temperature;BMP_pressure;BME280_temperature;BME280_humidity;BME280_pressure;Samples;Min_cycle;Max_cycle;Signal;HPM_P1;HPM_P2
2023/01/16 00:02:03;;;;;;;;;1.00;0.00;;;;;7.34;100.00;99427.06;4994456;28;45753;-89
2023/01/16 00:04:28;;;;;;;;;1.00;0.00;;;;;7.36;100.00;99410.56;5011616;28;45502;-89
2023/01/16 00:06:54;;;;;;;;;0.25;0.00;;;;;7.36;100.00;99391.63;4978763;28;45372;-89
2023/01/16 00:09:20;;;;;;;;;0.00;0.00;;;;;7.42;100.00;99388.78;4978446;28;47427;-90
2023/01/16 00:11:46;;;;;;;;;1.00;0.00;;;;;7.43;100.00;99363.75;4979836;28;45235;-89
2023/01/16 00:14:11;;;;;;;;;1.00;1.00;;;;;7.46;100.00;99358.44;4962756;28;45436;-89
2023/01/16 00:16:37;;;;;;;;;1.00;0.00;;;;;7.44;100.00;99345.56;4980948;28;45282;-90
2023/01/16 00:19:02;;;;;;;;;0.50;0.00;;;;;7.46;100.00;99324.78;5014409;28;48118;-89
2023/01/16 00:21:28;;;;;;;;;0.50;0.00;;;;;7.45;100.00;99292.06;4998562;28;45296;-89
2023/01/16 00:23:54;;;;;;;;;0.00;0.00;;;;;7.45;100.00;99279.13;4982012;28;45572;-89
2023/01/16 00:26:20;;;;;;;;;1.75;0.00;;;;;7.48;100.00;99256.50;4998275;28;45455;-89
2023/01/16 00:28:53;;;;;;;;;1.00;0.00;;;;;7.46;100.00;99247.97;4998054;28;48145;-89
2023/01/16 00:31:19;;;;;;;;;0.00;0.00;;;;;7.46;100.00;99227.25;4998855;28;45758;-88
2023/01/16 00:33:45;;;;;;;;;0.00;0.00;;;;;7.46;100.00;99211.72;4997952;28;45502;-89
2023/01/16 00:36:11;;;;;;;;;0.50;0.00;;;;;7.48;100.00;99198.72;4981691;28;45357;-89
2023/01/16 00:38:37;;;;;;;;;0.75;0.00;;;;;7.46;100.00;99183.22;4997694;28;46465;-89
2023/01/16 00:41:02;;;;;;;;;0.00;0.00;;;;;7.47;100.00;99153.88;4997756;28;45500;-88
2023/01/16 00:43:28;;;;;;;;;0.00;0.00;;;;;7.46;100.00;99151.34;5015062;28;45445;-89
2023/01/16 00:45:53;;;;;;;;;0.00;0.00;;;;;7.46;100.00;99143.56;5001234;28;45441;-89
2023/01/16 00:48:19;;;;;;;;;0.00;0.00;;;;;7.45;100.00;99122.03;5034101;28;47129;-89
2023/01/16 00:50:44;;;;;;;;;0.00;0.00;;;;;7.49;100.00;99115.81;5017371;28;45338;-89
2023/01/16 00:53:10;;;;;;;;;0.00;0.00;;;;;7.49;100.00;99107.19;5017481;28;45361;-89
2023/01/16 00:55:36;;;;;;;;;1.00;0.00;;;;;7.50;100.00;99095.91;5016410;28;45271;-89
2023/01/16 00:58:03;;;;;;;;;1.00;0.00;;;;;7.54;100.00;99081.94;5018306;28;46635;-89
2023/01/16 01:00:28;;;;;;;;;0.00;0.00;;;;;7.51;100.00;99056.19;5050803;28;45273;-88
2023/01/16 01:02:54;;;;;;;;;0.00;0.00;;;;;7.54;100.00;99037.91;5018356;28;45458;-89
2023/01/16 01:05:19;;;;;;;;;0.00;0.00;;;;;7.55;100.00;99029.25;5017319;28;45351;-89
2023/01/16 01:07:45;;;;;;;;;2.50;0.00;;;;;7.52;100.00;99026.78;5050549;28;46035;-89
2023/01/16 01:10:13;;;;;;;;;0.00;0.00;;;;;7.51;100.00;99007.84;5016799;28;45445;-90
2023/01/16 01:12:39;;;;;;;;;0.00;0.00;;;;;7.56;100.00;98985.16;5018352;28;45277;-89
2023/01/16 01:15:05;;;;;;;;;0.00;0.00;;;;;7.57;100.00;98965.28;5018349;28;45155;-89
2023/01/16 01:17:35;;;;;;;;;0.00;0.00;;;;;7.50;100.00;98959.56;5041786;28;46381;-89
2023/01/16 01:20:02;;;;;;;;;3.50;0.00;;;;;7.53;100.00;98919.75;4997333;28;45722;-89
2023/01/16 01:22:27;;;;;;;;;0.00;0.00;;;;;7.57;100.00;98922.09;4997350;28;45385;-89
2023/01/16 01:24:53;;;;;;;;;0.00;0.00;;;;;7.57;100.00;98892.78;5030409;28;45481;-89
2023/01/16 01:27:23;;;;;;;;;0.00;0.00;;;;;7.56;100.00;98879.00;5013696;28;47232;-89
2023/01/16 01:29:48;;;;;;;;;0.00;0.00;;;;;7.55;100.00;98860.97;4997184;28;45726;-88
2023/01/16 01:32:14;;;;;;;;;2.00;0.00;;;;;7.55;100.00;98835.06;4996965;28;45729;-89
2023/01/16 01:34:39;;;;;;;;;0.00;0.00;;;;;7.52;100.00;98825.69;4980787;28;45473;-89
2023/01/16 01:37:08;;;;;;;;;1.50;0.00;;;;;7.45;100.00;98813.94;5013694;28;47737;-89
2023/01/16 01:39:33;;;;;;;;;0.00;0.00;;;;;7.37;100.00;98810.88;4996832;28;45468;-88
2023/01/16 01:44:48;;;;;;;;;4.00;0.00;;;;;7.15;100.00;98765.28;5045426;28;45446;-89
2023/01/16 01:47:15;;;;;;;;;0.00;0.00;;;;;7.04;100.00;98735.63;5017977;28;45780;-88
2023/01/16 01:49:40;;;;;;;;;1.00;0.00;;;;;6.89;100.00;98727.69;5033552;28;45863;-89
2023/01/16 01:52:12;;;;;;;;;0.00;0.00;;;;;6.75;100.00;98727.47;5017014;28;45424;-89
2023/01/16 01:54:40;;;;;;;;;0.50;0.00;;;;;6.76;100.00;98708.47;5000006;28;45433;-88
2023/01/16 01:57:12;;;;;;;;;0.00;0.00;;;;;7.57;100.00;98675.31;5033039;28;47270;-89
2023/01/16 01:59:41;;;;;;;;;0.75;0.00;;;;;6.97;100.00;98666.09;5015989;28;45370;-90
2023/01/16 02:02:31;;;;;;;;;0.50;0.00;;;;;6.69;100.00;98969.06;5016851;28;45456;-90
2023/01/16 02:04:57;;;;;;;;;0.00;0.00;;;;;6.54;100.00;98882.63;5016974;28;45504;-89
2023/01/16 02:07:24;;;;;;;;;0.00;0.00;;;;;6.51;100.00;98825.06;5015863;28;45500;-88
2023/01/16 02:10:10;;;;;;;;;0.00;0.00;;;;;6.35;100.00;98727.53;5016499;28;45689;-88
2023/01/16 02:19:51;;;;;;;;;0.00;0.00;;;;;6.32;100.00;98477.00;4917536;28;45794;-86
2023/01/16 02:22:44;;;;;;;;;0.00;0.00;;;;;6.27;100.00;98497.03;4917522;28;45444;-87
2023/01/16 02:25:36;;;;;;;;;0.00;0.00;;;;;6.20;100.00;98499.09;4917305;28;45378;-87
2023/01/16 02:28:11;;;;;;;;;0.25;0.00;;;;;6.24;0.00;98597.97;4917559;28;45520;-87
2023/01/16 02:33:16;;;;;;;;;0.00;0.00;;;;;-145.09;100.00;59365.97;4156486;28;153138932;-87
2023/01/16 02:36:00;;;;;;;;;1.75;0.00;;;;;6.34;0.00;98608.72;4951435;28;28391;-86
2023/01/16 02:38:37;;;;;;;;;0.25;0.00;;;;;6.31;24.21;98560.59;4935690;28;28542;-87
2023/01/16 02:41:14;;;;;;;;;0.00;0.00;;;;;6.31;54.95;98562.34;4935416;28;28383;-86
2023/01/16 02:43:49;;;;;;;;;0.25;0.00;;;;;6.27;56.26;98553.88;4968646;28;28707;-87
2023/01/16 02:46:26;;;;;;;;;0.00;0.00;;;;;6.19;29.34;98562.00;4954894;28;28549;-87
2023/01/16 02:49:20;;;;;;;;;0.00;0.00;;;;;6.21;79.33;98538.69;4954974;28;28482;-88
2023/01/16 02:51:51;;;;;;;;;0.00;0.00;;;;;6.14;81.17;98540.69;4956019;28;28418;-87
2023/01/16 02:54:24;;;;;;;;;0.00;0.00;;;;;6.13;82.99;98515.78;5047786;28;28347;-87
2023/01/16 02:56:58;;;;;;;;;2.00;0.00;;;;;6.09;83.39;98519.44;5031069;28;28703;-87
2023/01/16 02:59:24;;;;;;;;;0.00;0.00;;;;;6.13;83.51;98496.84;5030676;28;28403;-87
2023/01/16 03:01:50;;;;;;;;;0.00;0.00;;;;;6.14;83.67;98485.63;5047636;28;28288;-87
2023/01/16 03:04:45;;;;;;;;;0.00;0.00;;;;;-145.09;100.00;59365.97;5035354;28;38233;-88
2023/01/16 03:07:25;;;;;;;;;0.00;0.00;;;;;-145.09;100.00;59365.97;5052002;28;8788;-87
2023/01/16 03:10:23;;;;;;;;;0.00;0.00;;;;;-145.09;100.00;59365.97;5084343;28;9056;-87
2023/01/16 03:13:00;;;;;;;;;1.00;0.00;;;;;-145.09;100.00;59365.97;5066871;28;8886;-87
2023/01/16 03:15:39;;;;;;;;;0.00;0.00;;;;;-145.09;100.00;59365.97;5084373;28;8900;-88
2023/01/16 03:18:32;;;;;;;;;0.00;0.00;;;;;-145.09;100.00;59365.97;5037830;28;8811;-87
2023/01/16 03:21:12;;;;;;;;;0.00;0.00;;;;;-145.09;100.00;59365.97;5030604;28;8807;-87
2023/01/16 03:23:53;;;;;;;;;0.00;0.00;;;;;-145.09;100.00;59365.97;5047130;28;8853;-88
2023/01/16 03:26:26;;;;;;;;;0.00;0.00;;;;;-145.09;100.00;59365.97;5030394;28;8834;-87
2023/01/16 03:29:24;;;;;;;;;0.00;0.00;;;;;-145.09;100.00;59365.97;5031784;28;8783;-87
2023/01/16 03:32:09;;;;;;;;;0.00;0.00;;;;;-145.09;100.00;59365.97;4970407;28;8835;-87
2023/01/16 03:35:02;;;;;;;;;1.25;0.00;;;;;-145.09;100.00;59365.97;4954393;28;8792;-87
2023/01/16 03:37:40;;;;;;;;;1.00;0.00;;;;;-145.09;100.00;59365.97;4968114;28;8835;-87
2023/01/16 03:40:08;;;;;;;;;0.00;0.00;;;;;-145.09;100.00;59365.97;4954904;28;8836;-87
2023/01/16 03:42:37;;;;;;;;;0.00;0.00;;;;;-145.09;100.00;59365.97;4954018;28;8813;-87
2023/01/16 03:45:14;;;;;;;;;0.00;0.00;;;;;-145.09;100.00;59365.97;4954460;28;8808;-86
2023/01/16 03:47:49;;;;;;;;;0.00;0.00;;;;;-145.09;100.00;59365.97;4954840;28;8812;-87
2023/01/16 03:50:18;;;;;;;;;0.00;0.00;;;;;-145.09;100.00;59365.97;4954491;28;8820;-88
2023/01/16 03:52:48;;;;;;;;;0.00;0.00;;;;;-145.09;100.00;59365.97;4954392;28;8851;-86
2023/01/16 03:55:19;;;;;;;;;1.00;0.00;;;;;-145.09;100.00;59365.97;4953929;28;8812;-86
2023/01/16 03:57:51;;;;;;;;;0.00;0.00;;;;;-145.09;100.00;59365.97;4954712;28;8839;-88
2023/01/16 04:00:18;;;;;;;;;0.00;0.00;;;;;-145.09;100.00;59365.97;4954138;28;8840;-87
2023/01/16 04:03:09;;;;;;;;;0.00;0.00;;;;;-145.09;100.00;59365.97;4970643;28;8816;-88
2023/01/16 04:06:07;;;;;;;;;0.00;0.00;;;;;-145.09;100.00;59365.97;4955731;28;8812;-89
2023/01/16 04:08:40;;;;;;;;;0.00;0.00;;;;;-145.09;100.00;59365.97;5009204;28;8851;-89
2023/01/16 04:11:38;;;;;;;;;0.00;0.00;;;;;-145.09;100.00;59365.97;5010208;28;8937;-90
2023/01/16 04:14:11;;;;;;;;;0.00;0.00;;;;;-145.09;100.00;59365.97;5027022;28;8832;-91
2023/01/16 04:16:43;;;;;;;;;0.00;0.00;;;;;-145.09;100.00;59365.97;5011676;28;8798;-88
2023/01/16 04:19:14;;;;;;;;;0.00;0.00;;;;;-145.09;100.00;59365.97;5030332;28;8815;-89
2023/01/16 04:21:43;;;;;;;;;0.00;0.00;;;;;-145.09;100.00;59365.97;5030398;28;8824;-89
2023/01/16 04:24:11;;;;;;;;;0.00;0.00;;;;;-145.09;100.00;59365.97;5029742;28;8919;-88
2023/01/16 04:26:44;;;;;;;;;0.00;0.00;;;;;-145.09;100.00;59365.97;5013492;28;9106;-88
2023/01/16 04:33:00;;;;;;;;;0.00;0.00;;;;;-145.09;100.00;59365.97;5012913;28;8850;-90
2023/01/16 04:35:48;;;;;;;;;0.00;0.00;;;;;-145.09;100.00;59365.97;5004691;28;8841;-90
2023/01/16 04:38:36;;;;;;;;;0.00;0.00;;;;;-145.09;100.00;59365.97;5013218;28;8810;-89
2023/01/16 04:41:42;;;;;;;;;0.00;0.00;;;;;-145.09;100.00;59365.97;4996386;28;8815;-89
2023/01/16 04:44:18;;;;;;;;;0.00;0.00;;;;;-145.09;100.00;59365.97;4992764;28;8787;-89
2023/01/16 04:46:54;;;;;;;;;0.00;0.00;;;;;-145.09;100.00;59365.97;4993026;28;8891;-89
2023/01/16 04:49:21;;;;;;;;;0.75;0.00;;;;;-145.09;100.00;59365.97;4976873;28;8894;-88
2023/01/16 04:51:59;;;;;;;;;0.00;0.00;;;;;-145.09;100.00;59365.97;4993184;28;8927;-89
2023/01/16 04:54:27;;;;;;;;;0.00;0.00;;;;;-145.09;100.00;59365.97;4992898;28;8799;-90
2023/01/16 04:57:15;;;;;;;;;0.00;0.00;;;;;-145.09;100.00;59365.97;4993064;28;8812;-90
2023/01/16 05:00:24;;;;;;;;;0.00;0.00;;;;;-145.09;100.00;59365.97;5009056;28;8807;-89
2023/01/16 05:02:59;;;;;;;;;0.00;0.00;;;;;-145.09;100.00;59365.97;4984973;28;8961;-90
2023/01/16 05:05:38;;;;;;;;;0.00;0.00;;;;;-145.09;100.00;59365.97;4992733;28;8811;-89
2023/01/16 05:08:16;;;;;;;;;0.00;0.00;;;;;-145.09;100.00;59365.97;5001762;28;8802;-90
2023/01/16 05:10:44;;;;;;;;;0.00;0.00;;;;;-145.09;100.00;59365.97;5029942;28;8849;-89
2023/01/16 05:13:14;;;;;;;;;0.00;0.00;;;;;-145.09;100.00;59365.97;5014452;28;8808;-89
2023/01/16 05:15:42;;;;;;;;;0.00;0.00;;;;;-145.09;100.00;59365.97;5014413;28;9533;-89
2023/01/16 05:18:12;;;;;;;;;0.00;0.00;;;;;-145.09;100.00;59365.97;5046589;28;8798;-89
2023/01/16 05:20:51;;;;;;;;;0.00;0.00;;;;;-145.09;100.00;59365.97;5013729;28;8805;-90
2023/01/16 05:23:43;;;;;;;;;0.25;0.00;;;;;-145.09;100.00;59365.97;5045627;28;8802;-90
2023/01/16 05:26:10;;;;;;;;;0.00;0.00;;;;;-145.09;100.00;59365.97;5013084;28;8830;-89
2023/01/16 05:28:40;;;;;;;;;0.00;0.00;;;;;-145.09;100.00;59365.97;4996611;28;8829;-90
2023/01/16 05:31:11;;;;;;;;;0.00;0.00;;;;;-145.09;100.00;59365.97;5012583;28;8818;-89
2023/01/16 05:33:46;;;;;;;;;0.50;0.00;;;;;-145.09;100.00;59365.97;5012764;28;8810;-89
2023/01/16 05:36:22;;;;;;;;;0.00;0.00;;;;;-145.09;100.00;59365.97;5012820;28;8810;-89
2023/01/16 05:39:02;;;;;;;;;0.25;0.00;;;;;-145.09;100.00;59365.97;5028984;28;8801;-89
2023/01/16 05:41:35;;;;;;;;;2.00;0.00;;;;;-145.09;100.00;59365.97;5043171;28;8832;-89
2023/01/16 05:44:05;;;;;;;;;0.25;0.00;;;;;-145.09;100.00;59365.97;5044899;28;8844;-89
2023/01/16 05:46:40;;;;;;;;;0.50;0.00;;;;;-145.09;100.00;59365.97;5013132;28;8939;-90
2023/01/16 05:49:08;;;;;;;;;0.00;0.00;;;;;-145.09;100.00;59365.97;5012962;28;8818;-90
2023/01/16 05:51:34;;;;;;;;;0.00;0.00;;;;;-145.09;100.00;59365.97;5028709;28;8837;-89
2023/01/16 05:54:35;;;;;;;;;;;;;;;;;;;;;
2023/01/16 05:57:22;;;;;;;;;;;;;;;;;;;;;
2023/01/16 06:00:04;;;;;;;;;0.00;0.00;;;;;-145.09;100.00;59365.97;5010928;28;35826;-90
2023/01/16 06:06:18;;;;;;;;;0.00;0.00;;;;;-145.09;100.00;59365.97;5012763;28;8809;-92
2023/01/16 06:09:04;;;;;;;;;;;;;;;;;;;;;
2023/01/16 06:11:30;;;;;;;;;1.00;0.00;;;;;-145.09;100.00;59365.97;5012330;28;36220;-89
2023/01/16 06:14:15;;;;;;;;;0.75;0.00;;;;;-145.09;100.00;59365.97;5012449;28;8821;-90
2023/01/16 06:16:46;;;;;;;;;1.75;0.00;;;;;-145.09;100.00;59365.97;5013729;28;8834;-88
2023/01/16 06:19:13;;;;;;;;;0.75;0.00;;;;;-145.09;100.00;59365.97;5049143;28;8881;-89
2023/01/16 06:21:54;;;;;;;;;;;;;;;;;;;;;
2023/01/16 06:25:03;;;;;;;;;2.00;0.00;;;;;-145.09;100.00;59365.97;5030995;28;36514;-90
2023/01/16 06:27:37;;;;;;;;;0.00;0.00;;;;;-145.09;100.00;59365.97;5033104;28;8795;-90
2023/01/16 06:30:23;;;;;;;;;1.75;0.00;;;;;-145.09;100.00;59365.97;5049257;28;8901;-90
2023/01/16 06:33:14;;;;;;;;;0.50;0.00;;;;;-145.09;100.00;59365.97;4956287;28;8855;-90
2023/01/16 06:36:23;;;;;;;;;1.00;0.00;;;;;-145.09;100.00;59365.97;4975960;28;8827;-90
2023/01/16 06:38:50;;;;;;;;;4.50;0.00;;;;;-145.09;100.00;59365.97;4971998;28;8879;-91
2023/01/16 06:41:29;;;;;;;;;0.00;0.00;;;;;-145.09;100.00;59365.97;4957093;28;8918;-90
2023/01/16 06:44:36;;;;;;;;;;;;;;;;;;;;;
2023/01/16 06:47:20;;;;;;;;;0.00;0.00;;;;;-145.09;100.00;59365.97;4969174;28;8846;-91
2023/01/16 06:50:53;;;;;;;;;;;;;;;;;;;;;
2023/01/16 06:53:43;;;;;;;;;;;;;;;;;;;;;
2023/01/16 06:56:17;;;;;;;;;1.00;0.00;;;;;-145.09;100.00;59365.97;4970734;28;36378;-90
2023/01/16 06:59:14;;;;;;;;;0.00;0.00;;;;;-145.09;100.00;59365.97;4956575;28;9742;-89
2023/01/16 07:05:36;;;;;;;;;0.00;0.00;;;;;-145.09;100.00;59365.97;4872022;29;8800;-89
2023/01/16 07:11:48;;;;;;;;;0.00;0.00;;;;;-145.09;100.00;59365.97;4875897;29;8828;-88
2023/01/16 07:23:29;;;;;;;;;1.50;0.00;;;;;-145.09;100.00;59365.97;4894979;29;8802;-90
2023/01/16 07:25:56;;;;;;;;;0.00;0.00;;;;;-145.09;100.00;59365.97;4879081;29;8868;-88
2023/01/16 07:28:35;;;;;;;;;;;;;;;;;;;;;
2023/01/16 07:41:22;;;;;;;;;;;;;;;;;;;;;
2023/01/16 07:47:48;;;;;;;;;1.00;0.00;;;;;-145.09;100.00;59365.97;4898390;29;8853;-93
2023/01/16 07:51:04;;;;;;;;;;;;;;;;;;;;;
2023/01/16 07:57:22;;;;;;;;;0.00;0.00;;;;;-145.09;100.00;59365.97;4895281;29;8923;-92
2023/01/16 08:03:46;;;;;;;;;;;;;;;;;;;;;
2023/01/16 08:06:44;;;;;;;;;;;;;;;;;;;;;
2023/01/16 08:09:33;;;;;;;;;;;;;;;;;;;;;
2023/01/16 08:15:54;;;;;;;;;;;;;;;;;;;;;
2023/01/16 08:19:12;;;;;;;;;;;;;;;;;;;;;
2023/01/16 08:22:37;;;;;;;;;;;;;;;;;;;;;
2023/01/16 08:26:03;;;;;;;;;;;;;;;;;;;;;
2023/01/16 08:29:09;;;;;;;;;;;;;;;;;;;;;
2023/01/16 08:31:23;;;;;;;;;0.00;0.00;;;;;-145.09;100.00;59365.97;4830415;29;9645;-88
2023/01/16 08:34:07;;;;;;;;;0.00;0.00;;;;;-145.09;100.00;59365.97;4849271;29;8932;-87
2023/01/16 08:36:35;;;;;;;;;1.00;0.00;;;;;-145.09;100.00;59365.97;4853277;29;8851;-88
2023/01/16 08:39:03;;;;;;;;;0.00;0.00;;;;;-145.09;100.00;59365.97;4825583;29;8799;-88
2023/01/16 08:52:30;;;;;;;;;0.00;0.00;;;;;-145.09;100.00;59365.97;4900745;29;8840;-86
2023/01/16 08:54:56;;;;;;;;;0.00;0.00;;;;;-145.09;100.00;59365.97;4893154;29;8937;-86
2023/01/16 08:57:22;;;;;;;;;0.00;0.00;;;;;-145.09;100.00;59365.97;4894269;29;8853;-88
2023/01/16 08:59:47;;;;;;;;;1.00;0.00;;;;;-145.09;100.00;59365.97;4893772;29;15273;-86
2023/01/16 09:02:14;;;;;;;;;0.00;0.00;;;;;-145.09;100.00;59365.97;4990710;28;8934;-87
2023/01/16 09:04:39;;;;;;;;;0.00;0.00;;;;;-145.09;100.00;59365.97;5029525;28;8811;-86
2023/01/16 09:07:05;;;;;;;;;0.00;0.00;;;;;-145.09;100.00;59365.97;5041037;28;8838;-88
2023/01/16 09:09:30;;;;;;;;;0.00;0.00;;;;;-145.09;100.00;59365.97;5040654;28;8831;-87
2023/01/16 09:14:41;;;;;;;;;0.75;0.00;;;;;-145.09;100.00;59365.97;5045415;28;9567;-88
2023/01/16 09:17:07;;;;;;;;;0.00;0.00;;;;;-145.09;100.00;59365.97;5031268;28;14692;-86
2023/01/16 09:19:33;;;;;;;;;1.00;0.00;;;;;-145.09;100.00;59365.97;5031234;28;8815;-87
2023/01/16 09:21:58;;;;;;;;;0.00;0.00;;;;;-145.09;100.00;59365.97;5032409;28;8827;-87
2023/01/16 09:24:24;;;;;;;;;0.00;0.00;;;;;-145.09;100.00;59365.97;5014927;28;8857;-87
2023/01/16 09:26:50;;;;;;;;;0.50;0.00;;;;;-145.09;100.00;59365.97;5047847;28;8806;-86
2023/01/16 09:29:15;;;;;;;;;0.00;0.00;;;;;-145.09;100.00;59365.97;5030616;28;8942;-85
2023/01/16 09:31:41;;;;;;;;;0.00;0.00;;;;;-145.09;100.00;59365.97;5032148;28;9308;-86
2023/01/16 09:34:06;;;;;;;;;0.00;0.00;;;;;-145.09;100.00;59365.97;5011821;28;15673;-88
2023/01/16 09:36:31;;;;;;;;;0.00;0.00;;;;;-145.09;100.00;59365.97;5044979;28;8802;-88
2023/01/16 09:38:57;;;;;;;;;0.00;0.00;;;;;-145.09;100.00;59365.97;5030207;28;8819;-86
2023/01/16 09:44:11;;;;;;;;;0.00;0.00;;;;;-145.09;100.00;59365.97;5028396;28;8803;-88
2023/01/16 09:46:42;;;;;;;;;0.00;0.00;;;;;-145.09;100.00;59365.97;5031704;28;9522;-87
2023/01/16 09:49:24;;;;;;;;;0.00;0.00;;;;;-145.09;100.00;59365.97;5030646;28;8881;-88
2023/01/16 10:00:29;;;;;;;;;0.00;0.00;;;;;-145.09;100.00;59365.97;5031101;28;8799;-87
2023/01/16 10:03:00;;;;;;;;;0.00;0.00;;;;;-145.09;100.00;59365.97;5065178;28;8804;-86
2023/01/16 10:05:34;;;;;;;;;0.00;0.00;;;;;-145.09;100.00;59365.97;5053715;28;8814;-87
2023/01/16 10:08:07;;;;;;;;;0.00;0.00;;;;;-145.09;100.00;59365.97;5026699;28;8802;-86
2023/01/16 10:10:35;;;;;;;;;0.25;0.00;;;;;-145.09;100.00;59365.97;5023465;28;8853;-87
2023/01/16 10:13:25;;;;;;;;;0.00;0.00;;;;;-145.09;100.00;59365.97;5032177;28;8805;-88
2023/01/16 10:16:32;;;;;;;;;0.00;0.00;;;;;-145.09;100.00;59365.97;5054098;28;8756;-87
2023/01/16 10:19:24;;;;;;;;;0.25;0.00;;;;;-145.09;100.00;59365.97;5012857;28;8802;-88
2023/01/16 10:21:53;;;;;;;;;0.00;0.00;;;;;-145.09;100.00;59365.97;5014721;28;8807;-88
2023/01/16 10:24:30;;;;;;;;;0.00;0.00;;;;;-145.09;100.00;59365.97;5032122;28;8811;-87
2023/01/16 10:27:35;;;;;;;;;0.50;0.00;;;;;-145.09;100.00;59365.97;5022522;28;8811;-87
2023/01/16 10:30:17;;;;;;;;;0.00;0.00;;;;;-145.09;100.00;59365.97;4951294;28;8895;-87
2023/01/16 10:33:12;;;;;;;;;3.50;1.00;;;;;-145.09;100.00;59365.97;4944175;28;8811;-87
2023/01/16 10:35:39;;;;;;;;;4.00;1.00;;;;;-145.09;100.00;59365.97;4885864;29;8827;-87
2023/01/16 10:41:00;;;;;;;;;0.00;0.00;;;;;-145.09;100.00;59365.97;4883539;29;8927;-88
2023/01/16 10:49:33;;;;;;;;;0.00;0.00;;;;;-145.09;100.00;59365.97;4832589;29;8832;-89
2023/01/16 10:52:24;;;;;;;;;0.00;0.00;;;;;-145.09;100.00;59365.97;4854451;29;8785;-91
2023/01/16 10:55:02;;;;;;;;;0.00;0.00;;;;;-145.09;100.00;59365.97;4825788;29;8841;-88
2023/01/16 10:57:52;;;;;;;;;0.00;0.00;;;;;-145.09;100.00;59365.97;4833438;29;8976;-90
2023/01/16 11:00:53;;;;;;;;;;;;;;;;;;;;;
2023/01/16 11:03:51;;;;;;;;;0.00;0.00;;;;;-145.09;100.00;59365.97;4862880;29;36540;-91
2023/01/16 11:06:26;;;;;;;;;0.00;0.00;;;;;-145.09;100.00;59365.97;4883220;29;8853;-94
2023/01/16 11:08:54;;;;;;;;;0.00;0.00;;;;;-145.09;100.00;59365.97;4878097;29;9048;-94
2023/01/16 11:20:38;;;;;;;;;;;;;;;;;;;;;
2023/01/16 11:23:49;;;;;;;;;;;;;;;;;;;;;
2023/01/16 11:26:15;;;;;;;;;0.00;0.00;;;;;-145.09;100.00;59365.97;4950545;28;37087;-91
2023/01/16 11:28:48;;;;;;;;;1.00;0.00;;;;;-145.09;100.00;59365.97;4953730;28;8925;-93
2023/01/16 11:49:34;;;;;;;;;0.00;0.00;;;;;-145.09;100.00;59365.97;5631701;22;8830;-92
2023/01/16 11:52:49;;;;;;;;;;;;;;;;;;;;;
2023/01/16 11:55:28;;;;;;;;;0.25;0.00;;;;;-145.09;100.00;59365.97;5012770;28;36114;-93
2023/01/16 11:58:12;;;;;;;;;0.00;0.00;;;;;-145.09;100.00;59365.97;5031951;28;8905;-92
2023/01/16 12:04:01;;;;;;;;;;;;;;;;;;;;;
2023/01/16 12:07:16;;;;;;;;;0.00;0.00;;;;;-145.09;100.00;59365.97;5031212;28;36474;-93
2023/01/16 12:16:33;;;;;;;;;0.00;0.00;;;;;-145.09;100.00;59365.97;4932948;29;8821;-89
2023/01/16 12:19:20;;;;;;;;;;;;;;;;;;;;;
2023/01/16 12:22:16;;;;;;;;;;;;;;;;;;;;;
2023/01/16 12:32:32;;;;;;;;;;;;;;;;;;;;;
2023/01/16 12:35:34;;;;;;;;;0.25;0.00;;;;;-145.09;100.00;59365.97;4879490;29;37329;-89
2023/01/16 12:38:39;;;;;;;;;0.00;0.00;;;;;-145.09;100.00;59365.97;4876118;29;8805;-92
2023/01/16 12:44:17;;;;;;;;;0.75;0.00;;;;;-145.09;100.00;59365.97;4939586;28;8760;-91
2023/01/16 13:19:15;;;;;;;;;0.25;0.25;;;;;-145.09;100.00;59365.97;2660156;22;9135;-88
2023/01/16 13:25:42;;;;;;;;;;;;;;;;;;;;;
2023/01/16 13:28:43;;;;;;;;;;;;;;;;;;;;;
2023/01/16 13:32:15;;;;;;;;;0.25;0.00;;;;;-145.09;100.00;59365.97;5071940;28;36184;-91
2023/01/16 13:35:25;;;;;;;;;2.50;0.00;;;;;-145.09;100.00;59365.97;5031067;28;8809;-91
2023/01/16 13:38:35;;;;;;;;;;;;;;;;;;;;;
2023/01/16 13:41:59;;;;;;;;;1.00;0.00;;;;;-145.09;100.00;59365.97;4970338;28;36965;-89
2023/01/16 13:51:15;;;;;;;;;0.75;0.75;;;;;-145.09;100.00;59365.97;4885889;29;8818;-89
2023/01/16 13:53:53;;;;;;;;;0.00;0.00;;;;;-145.09;100.00;59365.97;4877895;29;8826;-90
2023/01/16 13:56:22;;;;;;;;;1.00;0.00;;;;;-145.09;100.00;59365.97;4866693;29;8766;-89
2023/01/16 14:01:56;;;;;;;;;1.00;0.00;;;;;-145.09;100.00;59365.97;4861522;29;8822;-92
2023/01/16 14:05:04;;;;;;;;;;;;;;;;;;;;;
2023/01/16 14:11:23;;;;;;;;;;;;;;;;;;;;;
2023/01/16 14:17:57;;;;;;;;;0.00;0.00;;;;;-145.09;100.00;59365.97;4848935;29;8779;-91
2023/01/16 14:24:36;;;;;;;;;0.00;0.00;;;;;-145.09;100.00;59365.97;4815047;29;8878;-88
2023/01/16 14:27:45;;;;;;;;;0.75;0.00;;;;;-145.09;100.00;59365.97;4816853;29;8954;-91
2023/01/16 14:30:40;;;;;;;;;;;;;;;;;;;;;
2023/01/16 14:36:16;;;;;;;;;2.00;0.00;;;;;-145.09;100.00;59365.97;4821887;29;8831;-92
2023/01/16 14:39:17;;;;;;;;;;;;;;;;;;;;;
2023/01/16 14:57:21;;;;;;;;;0.00;0.00;;;;;-145.09;100.00;59365.97;4901320;29;8828;-90
2023/01/16 15:00:30;;;;;;;;;1.00;1.00;;;;;-145.09;100.00;59365.97;4965118;28;9565;-89
2023/01/16 15:03:01;;;;;;;;;0.00;0.00;;;;;-145.09;100.00;59365.97;4982267;28;8825;-89
2023/01/16 15:05:49;;;;;;;;;4.25;1.00;;;;;-145.09;100.00;59365.97;4981871;28;9011;-90
2023/01/16 15:08:19;;;;;;;;;1.00;1.00;;;;;-145.09;100.00;59365.97;5013525;28;8931;-88
2023/01/16 15:14:32;;;;;;;;;0.00;0.00;;;;;-145.09;100.00;59365.97;5032946;28;8766;-89
2023/01/16 15:22:59;;;;;;;;;0.00;0.00;;;;;-145.09;100.00;59365.97;5057370;28;8825;-88
2023/01/16 15:25:57;;;;;;;;;3.50;0.25;;;;;-145.09;100.00;59365.97;5053315;28;8938;-89
2023/01/16 15:29:03;;;;;;;;;5.00;5.00;;;;;-145.09;100.00;59365.97;5049166;28;8927;-89
2023/01/16 15:31:30;;;;;;;;;4.25;4.00;;;;;-145.09;100.00;59365.97;5071411;28;9019;-89
2023/01/16 15:34:22;;;;;;;;;1.00;1.00;;;;;-145.09;100.00;59365.97;5054625;28;8857;-90
2023/01/16 15:37:14;;;;;;;;;0.25;0.25;;;;;-145.09;100.00;59365.97;5056228;28;9731;-89
2023/01/16 15:40:07;;;;;;;;;0.75;0.75;;;;;-145.09;100.00;59365.97;5040722;28;8898;-88
2023/01/16 15:48:56;;;;;;;;;0.75;0.75;;;;;-145.09;100.00;59365.97;5057763;28;8793;-90
2023/01/16 15:51:27;;;;;;;;;5.00;4.00;;;;;-145.09;100.00;59365.97;5067741;28;8839;-88
2023/01/16 15:53:56;;;;;;;;;1.00;1.00;;;;;-145.09;100.00;59365.97;5054746;28;8797;-88
2023/01/16 15:56:48;;;;;;;;;4.00;4.00;;;;;-145.09;100.00;59365.97;5054076;28;8753;-87
2023/01/16 15:59:55;;;;;;;;;6.75;5.00;;;;;-145.09;100.00;59365.97;4974701;28;8824;-90
2023/01/16 16:02:44;;;;;;;;;5.50;2.25;;;;;-145.09;100.00;59365.97;4989963;28;8783;-89
2023/01/16 16:08:34;;;;;;;;;1.00;1.00;;;;;-145.09;100.00;59365.97;4973305;28;8800;-89
2023/01/16 16:21:01;;;;;;;;;;;;;;;;;;;;;
2023/01/16 16:23:40;;;;;;;;;4.00;1.50;;;;;7.08;84.10;98525.06;4934960;28;67501;-88
2023/01/16 16:26:14;;;;;;;;;5.25;4.00;;;;;7.15;84.07;98540.19;4937975;28;28434;-89
2023/01/16 16:28:49;;;;;;;;;4.00;1.25;;;;;7.09;84.04;98548.25;4928042;28;45343;-91
2023/01/16 16:31:44;;;;;;;;;3.50;3.50;;;;;7.11;84.00;98541.28;4942040;28;45739;-91
2023/01/16 16:34:38;;;;;;;;;1.25;1.00;;;;;7.06;83.99;98556.19;4916362;28;45423;-89
2023/01/16 16:37:16;;;;;;;;;1.50;1.50;;;;;7.10;84.03;98596.50;4920912;28;45457;-88
2023/01/16 16:40:08;;;;;;;;;;;;;;;;;;;;;
2023/01/16 16:42:34;;;;;;;;;1.50;1.00;;;;;6.85;83.99;98617.53;4920639;28;74005;-88
2023/01/16 16:45:18;;;;;;;;;;;;;;;;;;;;;
2023/01/16 16:48:18;;;;;;;;;1.50;1.50;;;;;6.97;83.98;98592.84;4936928;28;71142;-91
2023/01/16 16:50:45;;;;;;;;;1.00;1.00;;;;;7.05;83.99;98603.63;4947340;28;47174;-88
2023/01/16 16:53:24;;;;;;;;;1.50;1.00;;;;;6.96;84.46;98711.00;4966726;28;45294;-88
2023/01/16 16:56:10;;;;;;;;;5.25;4.00;;;;;6.96;84.43;98703.22;5021656;28;45481;-87
2023/01/16 16:59:20;;;;;;;;;1.75;1.75;;;;;7.00;84.38;98703.06;5041124;28;45502;-87
2023/01/16 17:01:49;;;;;;;;;4.00;4.00;;;;;6.95;84.33;98701.53;4962511;28;46021;-85
2023/01/16 17:04:17;;;;;;;;;1.50;0.50;;;;;6.96;84.26;98704.97;4943079;28;45235;-86
2023/01/16 17:06:43;;;;;;;;;6.00;2.50;;;;;7.03;84.27;98700.34;4957751;28;45493;-85
2023/01/16 17:09:14;;;;;;;;;9.25;4.00;;;;;7.13;84.32;98706.75;4956651;28;45746;-85
2023/01/16 17:11:40;;;;;;;;;2.00;2.00;;;;;7.21;84.35;98714.19;4960759;28;46209;-84
2023/01/16 17:14:06;;;;;;;;;4.00;2.00;;;;;7.28;84.37;98715.53;4922470;28;45858;-85